Time;durP1;ratioP1;P1;durP2;ratioP2;P2;SDS_P1;SDS_P2;PMS_P1;PMS_P2;Temp;Humidity;BMP_temperature;BMP_pressure;BME280_temperature;BME280_humidity;BME280_pressure;Samples;Min_cycle;Max_cycle;Signal;HPM_P1;HPM_P2
2021/08/22 00:01:14;;;;;;;18.08;11.52;;;;;;;;;;4974507;28;20034;-56
2021/08/22 00:03:41;;;;;;;22.05;12.63;;;;;;;;;;4973583;28;20043;-55
2021/08/22 00:06:08;;;;;;;20.80;13.27;;;;;;;;;;4975733;28;20046;-58
2021/08/22 00:08:37;;;;;;;20.92;12.55;;;;;;;;;;4982502;28;20116;-56
2021/08/22 00:11:05;;;;;;;21.02;12.13;;;;;;;;;;4975314;28;20041;-55
2021/08/22 00:13:31;;;;;;;22.33;13.55;;;;;;;;;;4972202;28;20349;-57
2021/08/22 00:16:00;;;;;;;21.75;12.57;;;;;;;;;;4974345;28;20046;-53
2021/08/22 00:18:27;;;;;;;21.23;13.15;;;;;;;;;;4969139;28;20046;-56
2021/08/22 00:20:54;;;;;;;21.60;13.43;;;;;;;;;;4978599;28;20062;-55
2021/08/22 00:23:20;;;;;;;24.17;13.95;;;;;;;;;;4977231;28;20042;-57
2021/08/22 00:25:46;;;;;;;25.15;14.52;;;;;;;;;;4990794;28;20049;-55
2021/08/22 00:28:14;;;;;;;23.27;14.23;;;;;;;;;;4973963;28;20050;-56
2021/08/22 00:30:41;;;;;;;21.92;13.80;;;;;;;;;;4978570;28;20372;-57
2021/08/22 00:33:07;;;;;;;24.02;12.38;;;;;;;;;;4988792;28;20052;-58
2021/08/22 00:35:34;;;;;;;19.15;11.45;;;;;;;;;;4975502;28;20042;-56
2021/08/22 00:38:00;;;;;;;18.80;10.57;;;;;;;;;;4972571;28;20051;-56
2021/08/22 00:40:34;;;;;;;18.25;10.57;;;;;;;;;;4992104;28;20071;-55
2021/08/22 00:43:01;;;;;;;15.00;9.90;;;;;;;;;;4989103;28;20124;-57
2021/08/22 00:45:29;;;;;;;21.17;7.82;;;;;;;;;;4977929;28;20050;-57
2021/08/22 00:47:56;;;;;;;12.45;6.93;;;;;;;;;;4973170;28;20126;-57
2021/08/22 00:50:23;;;;;;;12.15;7.25;;;;;;;;;;4995372;28;20056;-57
2021/08/22 00:52:52;;;;;;;18.95;6.60;;;;;;;;;;4972791;28;20053;-58
2021/08/22 00:55:19;;;;;;;11.65;6.35;;;;;;;;;;4978805;28;20065;-56
2021/08/22 00:57:45;;;;;;;17.35;6.88;;;;;;;;;;4979484;28;20042;-56
2021/08/22 01:00:13;;;;;;;12.35;6.32;;;;;;;;;;4973934;28;20046;-50
2021/08/22 01:02:44;;;;;;;13.25;6.65;;;;;;;;;;4992627;28;20058;-59
2021/08/22 01:05:18;;;;;;;12.32;6.63;;;;;;;;;;4988537;28;20056;-57
2021/08/22 01:07:46;;;;;;;12.52;6.63;;;;;;;;;;4978690;28;20038;-57
2021/08/22 01:10:16;;;;;;;11.55;6.05;;;;;;;;;;4971806;28;20053;-58
2021/08/22 01:12:46;;;;;;;12.38;6.90;;;;;;;;;;4993110;28;20039;-57
2021/08/22 01:15:13;;;;;;;15.63;7.78;;;;;;;;;;4972417;28;20074;-57
2021/08/22 01:17:43;;;;;;;14.35;7.43;;;;;;;;;;4980746;28;20057;-57
2021/08/22 01:20:13;;;;;;;13.45;7.03;;;;;;;;;;4973076;28;20042;-56
2021/08/22 01:22:40;;;;;;;13.23;7.80;;;;;;;;;;4990272;28;20034;-57
2021/08/22 01:25:08;;;;;;;15.80;8.15;;;;;;;;;;4969235;28;20043;-56
2021/08/22 01:27:36;;;;;;;14.02;7.78;;;;;;;;;;4990066;28;20038;-57
2021/08/22 01:30:05;;;;;;;14.05;7.43;;;;;;;;;;4973440;28;20047;-55
2021/08/22 01:32:31;;;;;;;;;;;;;;;;;;4990573;28;20057;-56
2021/08/22 01:34:59;;;;;;;11.55;6.57;;;;;;;;;;4970771;28;19937;-57
2021/08/22 01:37:27;;;;;;;11.82;6.25;;;;;;;;;;4992565;28;20042;-55
2021/08/22 01:39:54;;;;;;;11.10;6.80;;;;;;;;;;4975714;28;20448;-57
2021/08/22 01:42:21;;;;;;;12.00;6.70;;;;;;;;;;4977177;28;20038;-57
2021/08/22 01:44:49;;;;;;;9.95;5.68;;;;;;;;;;4993924;28;20096;-57
2021/08/22 01:47:15;;;;;;;11.73;6.47;;;;;;;;;;4975221;28;20062;-57
2021/08/22 01:49:42;;;;;;;12.38;6.13;;;;;;;;;;4973941;28;20054;-55
2021/08/22 01:52:11;;;;;;;11.43;5.88;;;;;;;;;;4989628;28;20124;-56
2021/08/22 01:54:38;;;;;;;10.93;5.82;;;;;;;;;;4979277;28;20056;-56
2021/08/22 01:57:05;;;;;;;11.63;6.07;;;;;;;;;;4975524;28;20054;-55
2021/08/22 01:59:36;;;;;;;10.68;5.93;;;;;;;;;;4976732;28;20046;-56
2021/08/22 02:02:03;;;;;;;11.07;5.82;;;;;;;;;;4997477;28;20062;-56
2021/08/22 02:04:34;;;;;;;12.18;5.72;;;;;;;;;;4985218;28;20060;-56
2021/08/22 02:07:03;;;;;;;12.15;6.05;;;;;;;;;;4999493;28;20100;-55
2021/08/22 02:09:34;;;;;;;8.95;5.28;;;;;;;;;;4984361;28;20049;-56
2021/08/22 02:12:03;;;;;;;9.32;5.55;;;;;;;;;;4971631;28;20050;-55
2021/08/22 02:14:32;;;;;;;10.23;5.82;;;;;;;;;;4965074;28;20057;-57
2021/08/22 02:16:58;;;;;;;14.93;7.13;;;;;;;;;;4962493;28;20194;-56
2021/08/22 02:19:27;;;;;;;16.92;6.60;;;;;;;;;;4967113;28;20057;-57
2021/08/22 02:21:55;;;;;;;14.75;7.47;;;;;;;;;;4961600;28;20133;-55
2021/08/22 02:24:21;;;;;;;15.75;7.10;;;;;;;;;;4984606;28;20046;-54
2021/08/22 02:26:49;;;;;;;14.10;7.03;;;;;;;;;;4964009;28;20112;-55
2021/08/22 02:29:16;;;;;;;12.35;7.38;;;;;;;;;;4983163;28;20049;-55
2021/08/22 02:31:42;;;;;;;16.08;8.20;;;;;;;;;;4963686;28;20122;-57
2021/08/22 02:34:08;;;;;;;18.30;7.15;;;;;;;;;;4985441;28;20084;-54
2021/08/22 02:36:35;;;;;;;17.08;8.15;;;;;;;;;;5003792;28;20042;-55
2021/08/22 02:39:01;;;;;;;14.38;8.00;;;;;;;;;;4983611;28;20046;-56
2021/08/22 02:41:29;;;;;;;15.68;7.65;;;;;;;;;;5005211;28;20055;-57
2021/08/22 02:43:57;;;;;;;14.67;7.80;;;;;;;;;;4969053;28;20062;-57
2021/08/22 02:46:24;;;;;;;13.33;7.83;;;;;;;;;;4966889;28;20049;-56
2021/08/22 02:48:50;;;;;;;16.10;7.03;;;;;;;;;;4963457;28;20352;-56
2021/08/22 02:51:17;;;;;;;14.30;7.50;;;;;;;;;;4983251;28;20058;-56
2021/08/22 02:53:43;;;;;;;12.68;6.78;;;;;;;;;;4962584;28;20042;-57
2021/08/22 02:56:09;;;;;;;13.77;7.55;;;;;;;;;;4983897;28;20125;-56
2021/08/22 02:58:36;;;;;;;15.38;8.05;;;;;;;;;;4962876;28;20054;-56
2021/08/22 03:04:19;;;;;;;14.40;7.55;;;;;;;;;;1183742;23;20187;-53
2021/08/22 03:06:47;;;;;;;12.05;6.95;;;;;;;;;;4996585;28;20034;-55
2021/08/22 03:09:13;;;;;;;14.85;7.90;;;;;;;;;;4972597;28;20050;-57
2021/08/22 03:11:40;;;;;;;11.90;7.28;;;;;;;;;;5002160;28;20061;-57
2021/08/22 03:14:06;;;;;;;13.43;7.10;;;;;;;;;;4976772;28;20058;-55
2021/08/22 03:16:33;;;;;;;13.77;7.03;;;;;;;;;;4983032;28;20151;-57
2021/08/22 03:19:00;;;;;;;15.00;7.47;;;;;;;;;;4978238;28;20057;-56
2021/08/22 03:21:33;;;;;;;18.55;8.75;;;;;;;;;;4992552;28;20054;-56
2021/08/22 03:24:01;;;;;;;17.17;8.73;;;;;;;;;;4982833;28;20047;-57
2021/08/22 03:26:27;;;;;;;15.60;8.20;;;;;;;;;;4991650;28;20042;-57
2021/08/22 03:28:54;;;;;;;15.60;7.68;;;;;;;;;;4972425;28;20069;-55
2021/08/22 03:31:20;;;;;;;17.50;9.02;;;;;;;;;;4973677;28;20076;-56
2021/08/22 03:33:47;;;;;;;19.08;9.55;;;;;;;;;;4981020;28;20150;-56
2021/08/22 03:36:13;;;;;;;19.90;9.27;;;;;;;;;;4981322;28;20042;-55
2021/08/22 03:38:40;;;;;;;20.88;9.50;;;;;;;;;;4983138;28;20062;-56
2021/08/22 03:41:08;;;;;;;22.70;9.13;;;;;;;;;;4995389;28;20066;-56
2021/08/22 03:43:34;;;;;;;17.98;9.30;;;;;;;;;;4991327;28;20058;-55
2021/08/22 03:46:00;;;;;;;17.27;8.90;;;;;;;;;;4998091;28;20026;-56
2021/08/22 03:48:27;;;;;;;21.88;9.00;;;;;;;;;;4975773;28;20042;-55
2021/08/22 03:50:54;;;;;;;22.17;8.85;;;;;;;;;;4982965;28;20046;-57
2021/08/22 03:53:21;;;;;;;17.20;8.63;;;;;;;;;;4976118;28;20062;-57
2021/08/22 03:55:47;;;;;;;18.92;8.43;;;;;;;;;;4981687;28;20026;-56
2021/08/22 03:58:15;;;;;;;17.73;8.70;;;;;;;;;;4978710;28;20040;-55
2021/08/22 04:00:42;;;;;;;17.50;8.85;;;;;;;;;;4971302;28;20066;-55
2021/08/22 04:03:08;;;;;;;19.88;9.18;;;;;;;;;;4999519;28;20058;-55
2021/08/22 04:05:35;;;;;;;20.52;9.43;;;;;;;;;;4997768;28;20046;-57
2021/08/22 04:08:01;;;;;;;18.33;8.80;;;;;;;;;;5001818;28;20173;-58
2021/08/22 04:10:28;;;;;;;18.33;9.15;;;;;;;;;;4979619;28;20069;-55
2021/08/22 04:12:55;;;;;;;16.40;9.40;;;;;;;;;;4986378;28;20042;-57
2021/08/22 04:15:23;;;;;;;23.95;11.00;;;;;;;;;;4984573;28;20041;-55
2021/08/22 04:17:50;;;;;;;24.10;9.38;;;;;;;;;;5000744;28;20046;-57
2021/08/22 04:20:17;;;;;;;20.38;10.60;;;;;;;;;;5004475;28;20042;-57
2021/08/22 04:22:43;;;;;;;27.55;11.02;;;;;;;;;;4968689;28;20055;-57
2021/08/22 04:25:11;;;;;;;21.23;10.55;;;;;;;;;;4982614;28;20050;-57
2021/08/22 04:27:39;;;;;;;21.88;10.35;;;;;;;;;;4991595;28;20050;-57
2021/08/22 04:30:06;;;;;;;25.13;10.85;;;;;;;;;;4986612;28;20056;-57
2021/08/22 04:32:33;;;;;;;23.13;10.35;;;;;;;;;;4992244;28;20051;-58
2021/08/22 04:35:00;;;;;;;27.85;11.70;;;;;;;;;;4986607;28;20042;-57
2021/08/22 04:37:26;;;;;;;23.13;11.95;;;;;;;;;;4987087;28;20037;-53
2021/08/22 04:39:55;;;;;;;26.95;11.05;;;;;;;;;;4989488;28;20045;-59
2021/08/22 04:42:22;;;;;;;22.77;12.02;;;;;;;;;;4982759;28;20116;-56
2021/08/22 04:44:48;;;;;;;27.70;11.90;;;;;;;;;;4987625;28;20062;-56
2021/08/22 04:47:15;;;;;;;25.23;11.80;;;;;;;;;;4982661;28;20043;-56
2021/08/22 04:49:45;;;;;;;24.05;11.90;;;;;;;;;;4985446;28;20140;-56
2021/08/22 04:52:12;;;;;;;26.02;11.68;;;;;;;;;;4984406;28;20038;-55
2021/08/22 04:54:38;;;;;;;26.70;12.65;;;;;;;;;;4994586;28;20066;-57
2021/08/22 04:57:05;;;;;;;28.83;13.52;;;;;;;;;;4967332;28;20034;-56
2021/08/22 04:59:32;;;;;;;26.00;12.82;;;;;;;;;;4982440;28;20060;-56
2021/08/22 05:01:59;;;;;;;24.83;12.80;;;;;;;;;;4985035;28;20042;-56
2021/08/22 05:04:26;;;;;;;26.58;12.70;;;;;;;;;;4979009;28;20090;-56
2021/08/22 05:06:54;;;;;;;26.33;13.63;;;;;;;;;;4982018;28;20030;-57
2021/08/22 05:09:21;;;;;;;26.67;12.63;;;;;;;;;;4983502;28;20046;-56
2021/08/22 05:11:47;;;;;;;29.13;14.18;;;;;;;;;;4985778;28;20275;-57
2021/08/22 05:14:14;;;;;;;26.55;13.25;;;;;;;;;;4988127;28;20117;-55
2021/08/22 05:16:41;;;;;;;29.17;13.65;;;;;;;;;;4983786;28;20031;-57
2021/08/22 05:19:07;;;;;;;32.97;13.98;;;;;;;;;;4979976;28;20046;-55
2021/08/22 05:21:34;;;;;;;28.52;13.45;;;;;;;;;;4982831;28;20112;-57
2021/08/22 05:24:02;;;;;;;27.20;12.90;;;;;;;;;;4978851;28;20038;-55
2021/08/22 05:26:28;;;;;;;31.55;14.48;;;;;;;;;;4981632;28;20047;-54
2021/08/22 05:28:55;;;;;;;26.75;13.43;;;;;;;;;;4981345;28;20089;-54
2021/08/22 05:31:21;;;;;;;27.98;13.35;;;;;;;;;;4982903;28;20053;-56
2021/08/22 05:33:48;;;;;;;29.05;14.52;;;;;;;;;;4963232;28;20043;-57
2021/08/22 05:36:15;;;;;;;29.35;14.13;;;;;;;;;;4966118;28;20076;-56
2021/08/22 05:38:42;;;;;;;27.70;14.73;;;;;;;;;;4982723;28;20048;-55
2021/08/22 05:41:10;;;;;;;33.95;15.50;;;;;;;;;;4981215;28;20047;-54
2021/08/22 05:43:37;;;;;;;31.27;16.02;;;;;;;;;;4983344;28;20057;-56
2021/08/22 05:46:03;;;;;;;32.58;16.75;;;;;;;;;;4976062;28;20050;-56
2021/08/22 05:48:29;;;;;;;37.78;17.52;;;;;;;;;;4984412;28;20096;-55
2021/08/22 05:50:59;;;;;;;30.67;17.85;;;;;;;;;;4981327;28;20043;-55
2021/08/22 05:53:25;;;;;;;34.92;17.08;;;;;;;;;;4983547;28;20042;-53
2021/08/22 05:55:52;;;;;;;36.38;18.08;;;;;;;;;;4980511;28;20054;-54
2021/08/22 05:58:19;;;;;;;35.15;18.35;;;;;;;;;;4982946;28;20043;-55
2021/08/22 06:00:49;;;;;;;35.73;18.70;;;;;;;;;;4980445;28;20042;-57
2021/08/22 06:03:18;;;;;;;37.83;19.25;;;;;;;;;;4981778;28;20324;-56
2021/08/22 06:05:46;;;;;;;36.03;17.85;;;;;;;;;;4964722;28;20038;-57
2021/08/22 06:08:13;;;;;;;41.63;17.50;;;;;;;;;;4982570;28;20356;-57
2021/08/22 06:10:40;;;;;;;39.30;17.75;;;;;;;;;;4978201;28;20054;-57
2021/08/22 06:13:06;;;;;;;31.67;16.73;;;;;;;;;;4983631;28;20026;-53
2021/08/22 06:15:34;;;;;;;31.75;16.98;;;;;;;;;;4980967;28;20128;-56
2021/08/22 06:18:01;;;;;;;36.33;16.63;;;;;;;;;;4965881;28;20039;-55
2021/08/22 06:20:28;;;;;;;33.50;17.20;;;;;;;;;;4982321;28;20030;-52
2021/08/22 06:22:54;;;;;;;31.48;17.30;;;;;;;;;;4978176;28;20038;-56
2021/08/22 06:25:20;;;;;;;32.20;15.70;;;;;;;;;;4983076;28;20043;-55
2021/08/22 06:27:47;;;;;;;29.75;15.35;;;;;;;;;;4979435;28;20039;-54
2021/08/22 06:30:15;;;;;;;28.85;15.05;;;;;;;;;;4984605;28;20062;-53
2021/08/22 06:32:43;;;;;;;30.73;14.80;;;;;;;;;;4977703;28;20035;-56
2021/08/22 06:35:10;;;;;;;31.38;14.38;;;;;;;;;;4980124;28;20075;-54
2021/08/22 06:37:37;;;;;;;29.55;15.27;;;;;;;;;;4964578;28;20034;-57
2021/08/22 06:40:05;;;;;;;27.30;14.35;;;;;;;;;;4984524;28;20047;-54
2021/08/22 06:42:31;;;;;;;28.33;13.07;;;;;;;;;;4965750;28;20063;-55
2021/08/22 06:44:58;;;;;;;26.58;13.95;;;;;;;;;;4983978;28;20051;-57
2021/08/22 06:47:24;;;;;;;25.83;13.57;;;;;;;;;;4962247;28;20054;-56
2021/08/22 06:49:52;;;;;;;31.55;14.50;;;;;;;;;;4983561;28;20043;-56
2021/08/22 06:52:19;;;;;;;29.20;13.20;;;;;;;;;;4964172;28;20092;-53
2021/08/22 06:54:45;;;;;;;26.67;14.35;;;;;;;;;;4984449;28;20047;-56
2021/08/22 06:57:12;;;;;;;25.52;13.88;;;;;;;;;;4980578;28;20046;-55
2021/08/22 06:59:39;;;;;;;32.75;15.48;;;;;;;;;;4967265;28;20039;-57
2021/08/22 07:02:05;;;;;;;31.23;15.50;;;;;;;;;;4967046;28;20055;-57
2021/08/22 07:04:32;;;;;;;27.35;14.63;;;;;;;;;;4978326;28;20038;-55
2021/08/22 07:07:00;;;;;;;34.65;15.80;;;;;;;;;;4984535;28;20095;-56
2021/08/22 07:09:27;;;;;;;31.88;15.35;;;;;;;;;;4965462;28;20035;-55
2021/08/22 07:11:53;;;;;;;29.55;14.70;;;;;;;;;;4999425;28;20109;-53
2021/08/22 07:14:19;;;;;;;30.50;14.50;;;;;;;;;;4972907;28;20117;-56
2021/08/22 07:16:46;;;;;;;29.13;15.55;;;;;;;;;;4984249;28;20038;-53
2021/08/22 07:19:13;;;;;;;33.47;15.27;;;;;;;;;;4980449;28;20058;-54
2021/08/22 07:21:40;;;;;;;25.77;14.77;;;;;;;;;;4983538;28;20039;-56
2021/08/22 07:24:08;;;;;;;32.67;17.10;;;;;;;;;;4972270;28;20054;-56
2021/08/22 07:26:35;;;;;;;28.45;14.85;;;;;;;;;;5002181;28;20081;-56
2021/08/22 07:29:02;;;;;;;32.25;15.40;;;;;;;;;;4977076;28;20034;-56
2021/08/22 07:31:28;;;;;;;29.63;15.57;;;;;;;;;;4986211;28;20098;-55
2021/08/22 07:33:55;;;;;;;27.08;14.68;;;;;;;;;;4981559;28;20112;-56
2021/08/22 07:36:21;;;;;;;29.60;15.02;;;;;;;;;;4968781;28;20038;-57
2021/08/22 07:38:48;;;;;;;29.75;14.38;;;;;;;;;;4965039;28;20039;-55
2021/08/22 07:41:18;;;;;;;24.80;13.40;;;;;;;;;;4985819;28;20131;-56
2021/08/22 07:43:44;;;;;;;26.60;13.57;;;;;;;;;;4983945;28;20050;-56
2021/08/22 07:46:11;;;;;;;24.55;12.43;;;;;;;;;;5000181;28;20038;-58
2021/08/22 07:48:37;;;;;;;23.27;12.75;;;;;;;;;;5006455;28;20120;-55
2021/08/22 07:51:04;;;;;;;27.25;13.10;;;;;;;;;;4998429;28;20078;-54
2021/08/22 07:53:30;;;;;;;29.13;13.13;;;;;;;;;;4986580;28;20052;-52
2021/08/22 07:55:57;;;;;;;28.33;11.95;;;;;;;;;;4983061;28;20050;-58
2021/08/22 07:58:25;;;;;;;22.48;11.40;;;;;;;;;;4987467;28;20053;-57
2021/08/22 08:00:51;;;;;;;27.70;13.97;;;;;;;;;;4983411;28;20061;-55
2021/08/22 08:03:17;;;;;;;29.15;13.90;;;;;;;;;;4985354;28;20034;-55
2021/08/22 08:05:44;;;;;;;26.10;12.15;;;;;;;;;;4977755;28;20043;-55
2021/08/22 08:08:10;;;;;;;26.92;11.57;;;;;;;;;;4979158;28;20046;-57
2021/08/22 08:10:37;;;;;;;32.72;13.25;;;;;;;;;;4972076;28;20054;-56
2021/08/22 08:13:03;;;;;;;22.52;12.02;;;;;;;;;;4976922;28;20058;-57
2021/08/22 08:15:31;;;;;;;22.73;12.05;;;;;;;;;;4973005;28;20057;-56
2021/08/22 08:17:58;;;;;;;20.67;10.73;;;;;;;;;;4976596;28;20054;-53
2021/08/22 08:20:24;;;;;;;22.55;11.45;;;;;;;;;;4973467;28;20371;-55
2021/08/22 08:22:51;;;;;;;21.70;11.43;;;;;;;;;;4981557;28;20059;-57
2021/08/22 08:25:17;;;;;;;22.77;11.77;;;;;;;;;;4977795;28;20051;-55
2021/08/22 08:27:43;;;;;;;25.30;11.48;;;;;;;;;;4972965;28;20053;-57
2021/08/22 08:30:14;;;;;;;20.05;11.63;;;;;;;;;;4974758;28;20042;-57
2021/08/22 08:32:41;;;;;;;23.77;11.15;;;;;;;;;;4976200;28;20129;-56
2021/08/22 08:35:10;;;;;;;24.13;12.30;;;;;;;;;;4961276;28;20107;-56
2021/08/22 08:37:37;;;;;;;21.55;11.50;;;;;;;;;;4973436;28;20061;-56
2021/08/22 08:40:05;;;;;;;25.02;11.65;;;;;;;;;;4973907;28;20053;-56
2021/08/22 08:42:32;;;;;;;20.05;11.13;;;;;;;;;;4943324;28;20035;-56
2021/08/22 08:44:58;;;;;;;22.38;11.23;;;;;;;;;;4981952;28;20047;-55
2021/08/22 08:47:25;;;;;;;22.30;11.68;;;;;;;;;;4978052;28;20062;-55
2021/08/22 08:49:56;;;;;;;24.98;13.10;;;;;;;;;;4979572;28;20055;-56
2021/08/22 08:52:24;;;;;;;27.30;14.63;;;;;;;;;;4971505;28;20066;-57
2021/08/22 08:54:50;;;;;;;;;;;;;;;;;;4993004;28;20042;-56
2021/08/22 08:57:17;;;;;;;22.05;12.10;;;;;;;;;;4980690;28;19930;-55
2021/08/22 08:59:44;;;;;;;20.17;10.75;;;;;;;;;;4973217;28;20042;-57
2021/08/22 09:02:10;;;;;;;17.90;10.25;;;;;;;;;;4986037;28;20121;-56
2021/08/22 09:04:37;;;;;;;21.48;10.70;;;;;;;;;;4979287;28;20054;-52
2021/08/22 09:07:24;;;;;;;19.50;10.63;;;;;;;;;;4977229;28;20057;-55
2021/08/22 09:10:10;;;;;;;21.13;10.63;;;;;;;;;;4977941;28;20038;-57
2021/08/22 09:12:57;;;;;;;20.52;12.05;;;;;;;;;;4987158;28;20058;-57
2021/08/22 09:15:57;;;;;;;19.35;10.57;;;;;;;;;;4973124;28;20039;-57
2021/08/22 09:18:41;;;;;;;17.65;9.85;;;;;;;;;;4975219;28;20062;-56
2021/08/22 09:21:28;;;;;;;24.27;10.98;;;;;;;;;;4979431;28;20045;-57
2021/08/22 09:24:13;;;;;;;16.20;9.77;;;;;;;;;;4989647;28;20123;-57
2021/08/22 09:27:09;;;;;;;19.88;11.20;;;;;;;;;;4974623;28;20299;-57
2021/08/22 09:30:06;;;;;;;19.75;10.40;;;;;;;;;;4991665;28;20045;-57
2021/08/22 09:32:51;;;;;;;19.02;9.85;;;;;;;;;;4981629;28;20053;-55
2021/08/22 09:35:34;;;;;;;20.20;10.65;;;;;;;;;;4995574;28;20038;-55
2021/08/22 09:38:19;;;;;;;19.73;10.30;;;;;;;;;;4987719;28;20035;-56
2021/08/22 09:41:04;;;;;;;22.85;11.10;;;;;;;;;;4998226;28;20046;-57
2021/08/22 09:43:49;;;;;;;18.45;10.27;;;;;;;;;;4977065;28;20053;-57
2021/08/22 09:46:34;;;;;;;27.15;13.68;;;;;;;;;;4981845;28;20038;-57
2021/08/22 09:49:29;;;;;;;21.38;10.93;;;;;;;;;;4974771;28;20117;-55
2021/08/22 09:52:14;;;;;;;20.55;11.73;;;;;;;;;;4978431;28;20053;-56
2021/08/22 09:54:56;;;;;;;19.17;10.73;;;;;;;;;;4978008;28;20046;-57
2021/08/22 09:57:52;;;;;;;20.58;10.48;;;;;;;;;;4976325;28;20046;-54
2021/08/22 10:00:35;;;;;;;22.80;10.73;;;;;;;;;;4903877;29;20143;-54
2021/08/22 10:03:20;;;;;;;17.50;9.88;;;;;;;;;;4968768;28;20104;-56
2021/08/22 10:05:56;;;;;;;17.50;10.25;;;;;;;;;;4955199;28;20039;-56
2021/08/22 10:08:32;;;;;;;18.05;9.77;;;;;;;;;;4960500;28;20043;-58
2021/08/22 10:10:59;;;;;;;25.48;10.20;;;;;;;;;;4953863;28;20102;-56
2021/08/22 10:13:25;;;;;;;20.45;10.88;;;;;;;;;;4956337;28;20043;-55
2021/08/22 10:15:52;;;;;;;21.33;9.98;;;;;;;;;;4954828;28;20055;-57
2021/08/22 10:18:24;;;;;;;21.95;10.95;;;;;;;;;;4954669;28;20054;-54
2021/08/22 10:20:50;;;;;;;20.92;11.05;;;;;;;;;;4957908;28;20043;-57
2021/08/22 10:23:38;;;;;;;20.17;11.93;;;;;;;;;;4954726;28;20043;-56
2021/08/22 10:26:04;;;;;;;20.95;11.18;;;;;;;;;;4960012;28;20054;-55
2021/08/22 10:28:47;;;;;;;19.83;11.00;;;;;;;;;;4959022;28;20068;-55
2021/08/22 10:31:15;;;;;;;19.30;9.82;;;;;;;;;;4953233;28;20051;-54
2021/08/22 10:33:50;;;;;;;17.10;10.05;;;;;;;;;;4960426;28;20047;-57
2021/08/22 10:36:29;;;;;;;22.52;9.70;;;;;;;;;;4971852;28;20051;-55
2021/08/22 10:39:26;;;;;;;17.73;7.90;;;;;;;;;;4959970;28;20043;-57
2021/08/22 10:41:53;;;;;;;15.88;7.43;;;;;;;;;;4948171;28;20045;-55
2021/08/22 10:44:34;;;;;;;22.52;8.63;;;;;;;;;;4959808;28;20062;-55
2021/08/22 10:47:00;;;;;;;15.18;9.10;;;;;;;;;;4953666;28;20105;-57
2021/08/22 10:49:42;;;;;;;15.52;8.57;;;;;;;;;;4962341;28;20121;-57
2021/08/22 10:52:22;;;;;;;14.80;7.60;;;;;;;;;;4950236;28;20035;-56
2021/08/22 10:55:04;;;;;;;14.88;8.38;;;;;;;;;;4962080;28;20039;-57
2021/08/22 10:57:49;;;;;;;15.55;9.02;;;;;;;;;;4970604;28;20039;-55
2021/08/22 11:00:22;;;;;;;16.60;9.20;;;;;;;;;;4954333;28;20039;-58
2021/08/22 11:02:49;;;;;;;19.48;9.65;;;;;;;;;;4973191;28;20050;-54
2021/08/22 11:05:16;;;;;;;16.08;10.25;;;;;;;;;;4966348;28;20038;-55
2021/08/22 11:07:45;;;;;;;16.95;10.18;;;;;;;;;;4974269;28;20101;-56
2021/08/22 11:10:15;;;;;;;17.00;8.60;;;;;;;;;;4972383;28;20047;-53
2021/08/22 11:12:43;;;;;;;21.17;11.10;;;;;;;;;;4971452;28;20099;-57
2021/08/22 11:15:22;;;;;;;17.85;9.00;;;;;;;;;;4980760;28;20047;-56
2021/08/22 11:17:49;;;;;;;17.23;9.93;;;;;;;;;;4948921;28;20054;-57
2021/08/22 11:20:18;;;;;;;15.90;8.90;;;;;;;;;;4979504;28;20078;-57
2021/08/22 11:22:47;;;;;;;15.07;9.07;;;;;;;;;;4974113;28;20098;-56
2021/08/22 11:25:13;;;;;;;;;;;;;;;;;;4978713;28;20046;-56
2021/08/22 11:27:40;;;;;;;20.17;9.60;;;;;;;;;;4972136;28;19914;-57
2021/08/22 11:30:08;;;;;;;15.63;8.93;;;;;;;;;;4991215;28;20102;-57
2021/08/22 11:32:35;;;;;;;17.73;9.48;;;;;;;;;;4979497;28;20061;-56
2021/08/22 11:35:13;;;;;;;19.65;10.75;;;;;;;;;;4977429;28;20046;-57
2021/08/22 11:37:39;;;;;;;15.88;9.25;;;;;;;;;;4992658;28;20090;-57
2021/08/22 11:40:09;;;;;;;17.75;9.15;;;;;;;;;;4973441;28;20047;-57
2021/08/22 11:42:36;;;;;;;18.80;9.32;;;;;;;;;;4979203;28;20059;-57
2021/08/22 11:45:09;;;;;;;18.23;8.98;;;;;;;;;;4970620;28;20042;-58
2021/08/22 11:47:36;;;;;;;16.17;8.77;;;;;;;;;;4995710;28;20038;-56
2021/08/22 11:50:06;;;;;;;14.93;8.70;;;;;;;;;;4974854;28;20061;-56
2021/08/22 11:52:34;;;;;;;14.23;8.45;;;;;;;;;;4979187;28;20042;-57
2021/08/22 11:55:00;;;;;;;15.77;8.55;;;;;;;;;;4967368;28;20148;-56
2021/08/22 11:57:30;;;;;;;14.68;8.43;;;;;;;;;;4980251;28;20046;-57
2021/08/22 11:59:59;;;;;;;17.13;9.25;;;;;;;;;;4956954;28;20047;-57
2021/08/22 12:02:26;;;;;;;19.60;9.20;;;;;;;;;;4968577;28;20051;-58
2021/08/22 12:05:11;;;;;;;15.35;9.32;;;;;;;;;;4977548;28;20046;-57
2021/08/22 12:07:38;;;;;;;14.45;8.63;;;;;;;;;;4967275;28;20049;-55
2021/08/22 12:10:07;;;;;;;18.90;9.70;;;;;;;;;;4973738;28;20179;-58
2021/08/22 12:12:39;;;;;;;16.33;9.18;;;;;;;;;;4979159;28;20105;-58
2021/08/22 12:15:10;;;;;;;14.93;8.93;;;;;;;;;;4974776;28;20054;-57
2021/08/22 12:17:36;;;;;;;12.52;8.18;;;;;;;;;;4982154;28;20027;-57
2021/08/22 12:20:19;;;;;;;12.35;7.07;;;;;;;;;;4992130;28;20041;-56
2021/08/22 12:23:05;;;;;;;12.82;6.50;;;;;;;;;;4993064;28;20042;-57
2021/08/22 12:25:34;;;;;;;13.05;5.43;;;;;;;;;;4964304;28;20027;-57
2021/08/22 12:28:19;;;;;;;8.23;4.03;;;;;;;;;;4965849;28;20047;-57
2021/08/22 12:30:49;;;;;;;7.30;4.10;;;;;;;;;;4946385;28;20049;-57
2021/08/22 12:33:29;;;;;;;8.55;3.60;;;;;;;;;;4963933;28;20042;-58
2021/08/22 12:36:03;;;;;;;8.15;3.75;;;;;;;;;;4969218;28;20053;-57
2021/08/22 12:38:34;;;;;;;9.63;4.30;;;;;;;;;;4985222;28;20053;-55
2021/08/22 12:41:15;;;;;;;10.35;4.57;;;;;;;;;;4975978;28;20093;-56
2021/08/22 12:43:41;;;;;;;12.57;5.07;;;;;;;;;;4965177;28;20066;-57
2021/08/22 12:46:10;;;;;;;12.10;6.00;;;;;;;;;;4950776;28;20141;-57
2021/08/22 12:48:37;;;;;;;13.00;5.70;;;;;;;;;;4962283;28;20109;-56
2021/08/22 12:51:08;;;;;;;28.17;7.38;;;;;;;;;;4962008;28;20120;-55
2021/08/22 12:53:35;;;;;;;21.77;6.65;;;;;;;;;;4955843;28;20043;-56
2021/08/22 12:56:02;;;;;;;16.88;6.22;;;;;;;;;;4961157;28;20039;-56
2021/08/22 12:58:28;;;;;;;9.50;4.53;;;;;;;;;;4979047;28;20067;-53
2021/08/22 13:00:57;;;;;;;10.43;4.75;;;;;;;;;;4964118;28;20035;-56
2021/08/22 13:03:25;;;;;;;7.97;3.80;;;;;;;;;;4961129;28;20178;-57
2021/08/22 13:05:51;;;;;;;6.80;3.42;;;;;;;;;;4952947;28;20043;-57
2021/08/22 13:08:18;;;;;;;6.15;2.67;;;;;;;;;;4951266;28;20118;-57
2021/08/22 13:10:44;;;;;;;4.63;2.50;;;;;;;;;;4967914;28;20046;-57
2021/08/22 13:13:11;;;;;;;5.45;2.65;;;;;;;;;;4963488;28;20118;-57
2021/08/22 13:15:37;;;;;;;5.72;1.90;;;;;;;;;;4960543;28;20043;-56
2021/08/22 13:18:04;;;;;;;8.27;3.50;;;;;;;;;;4941601;28;20094;-55
2021/08/22 13:20:32;;;;;;;9.30;2.83;;;;;;;;;;4945441;28;20067;-56
2021/08/22 13:22:59;;;;;;;2.67;1.38;;;;;;;;;;4948388;28;20055;-57
2021/08/22 13:25:25;;;;;;;1.90;1.25;;;;;;;;;;4980214;28;20105;-55
2021/08/22 13:27:51;;;;;;;1.58;1.00;;;;;;;;;;4954721;28;20043;-56
2021/08/22 13:30:19;;;;;;;1.65;0.98;;;;;;;;;;4958862;28;20080;-56
2021/08/22 13:32:46;;;;;;;1.50;0.90;;;;;;;;;;4940960;28;20048;-57
2021/08/22 13:35:12;;;;;;;2.63;0.90;;;;;;;;;;4945987;28;20063;-57
2021/08/22 13:37:40;;;;;;;1.17;0.95;;;;;;;;;;4958630;28;20071;-57
2021/08/22 13:40:08;;;;;;;2.15;1.00;;;;;;;;;;4979309;28;20090;-56
2021/08/22 13:42:34;;;;;;;1.77;1.05;;;;;;;;;;4963172;28;20187;-56
2021/08/22 13:45:01;;;;;;;1.70;1.00;;;;;;;;;;4943383;28;20036;-57
2021/08/22 13:47:27;;;;;;;1.67;0.80;;;;;;;;;;4953185;28;20103;-55
2021/08/22 13:49:54;;;;;;;2.25;1.02;;;;;;;;;;4956255;28;20051;-57
2021/08/22 13:52:20;;;;;;;1.67;0.95;;;;;;;;;;4962556;28;20047;-56
2021/08/22 13:54:48;;;;;;;1.52;0.90;;;;;;;;;;4958854;28;20043;-53
2021/08/22 13:57:15;;;;;;;3.38;1.67;;;;;;;;;;4962805;28;20125;-57
2021/08/22 13:59:41;;;;;;;6.07;3.10;;;;;;;;;;4959168;28;20047;-56
2021/08/22 14:02:08;;;;;;;2.20;0.98;;;;;;;;;;4961507;28;20098;-57
2021/08/22 14:04:35;;;;;;;1.80;1.00;;;;;;;;;;4953585;28;20044;-55
2021/08/22 14:07:01;;;;;;;1.55;0.98;;;;;;;;;;4962107;28;20042;-58
2021/08/22 14:09:28;;;;;;;4.80;1.20;;;;;;;;;;4961698;28;20039;-58
2021/08/22 14:11:56;;;;;;;4.57;1.02;;;;;;;;;;4976156;28;20042;-57
2021/08/22 14:14:27;;;;;;;3.33;1.40;;;;;;;;;;4959436;28;20047;-58
2021/08/22 14:16:54;;;;;;;2.58;1.23;;;;;;;;;;4962543;28;20047;-57
2021/08/22 14:19:20;;;;;;;5.43;1.20;;;;;;;;;;4959392;28;20051;-57
2021/08/22 14:21:47;;;;;;;2.95;1.50;;;;;;;;;;4959318;28;20129;-56
2021/08/22 14:24:13;;;;;;;4.00;1.48;;;;;;;;;;4959587;28;20047;-57
2021/08/22 14:26:40;;;;;;;4.75;1.35;;;;;;;;;;4957880;28;20062;-58
2021/08/22 14:29:08;;;;;;;3.03;1.48;;;;;;;;;;4962565;28;20043;-57
2021/08/22 14:31:35;;;;;;;2.78;1.20;;;;;;;;;;4958581;28;20049;-56
2021/08/22 14:34:02;;;;;;;2.78;1.30;;;;;;;;;;4963665;28;20047;-57
2021/08/22 14:36:29;;;;;;;2.85;1.35;;;;;;;;;;4956034;28;20046;-55
2021/08/22 14:38:55;;;;;;;3.00;1.50;;;;;;;;;;4962095;28;20051;-54
2021/08/22 14:41:22;;;;;;;2.42;1.30;;;;;;;;;;4958316;28;20039;-57